createdAt,value
2022-12-18T00:01:34.124Z,100338.06
2022-12-18T00:04:04.091Z,100335.72
2022-12-18T00:06:33.682Z,100329.00
2022-12-18T00:09:04.956Z,100319.91
2022-12-18T00:11:33.891Z,100335.56
2022-12-18T00:14:02.185Z,100339.53
2022-12-18T00:16:31.999Z,100354.41
2022-12-18T00:19:00.417Z,100361.06
2022-12-18T00:21:29.366Z,100360.66
2022-12-18T00:23:57.636Z,100367.03
2022-12-18T00:26:29.542Z,100378.22
2022-12-18T00:29:00.600Z,100371.16
2022-12-18T00:31:29.108Z,100370.75
2022-12-18T00:33:57.572Z,100381.69
2022-12-18T00:36:27.380Z,100377.56
2022-12-18T00:38:56.511Z,100378.63
2022-12-18T00:41:44.014Z,100389.44
2022-12-18T00:44:13.928Z,100390.63
2022-12-18T00:46:42.556Z,100390.81
2022-12-18T00:49:10.673Z,100406.97
2022-12-18T00:51:38.713Z,100404.97
2022-12-18T00:54:06.758Z,100410.00
2022-12-18T00:56:45.701Z,100400.53
2022-12-18T00:59:17.162Z,100409.16
2022-12-18T01:01:45.802Z,100403.09
2022-12-18T01:04:14.091Z,100405.81
2022-12-18T01:06:42.438Z,100389.69
2022-12-18T01:09:10.374Z,100394.63
2022-12-18T01:11:39.813Z,100403.88
2022-12-18T01:14:08.240Z,100407.63
2022-12-18T01:16:36.442Z,100407.06
2022-12-18T01:19:04.521Z,100395.19
2022-12-18T01:21:32.466Z,100390.41
2022-12-18T01:24:00.489Z,100391.25
2022-12-18T01:26:30.620Z,100392.84
2022-12-18T01:29:00.111Z,100400.63
2022-12-18T01:31:29.958Z,100403.59
2022-12-18T01:33:58.621Z,100398.31
2022-12-18T01:36:29.566Z,100373.13
2022-12-18T01:38:58.224Z,100383.50
2022-12-18T01:41:48.950Z,100392.69
2022-12-18T01:45:05.806Z,100394.47
2022-12-18T01:47:38.834Z,100397.19
2022-12-18T01:50:11.083Z,100387.00
2022-12-18T01:52:40.419Z,100389.16
2022-12-18T01:55:10.219Z,100400.25
2022-12-18T01:57:39.401Z,100399.88
2022-12-18T02:00:11.194Z,100396.44
2022-12-18T02:02:41.521Z,100400.72
2022-12-18T02:05:11.385Z,100413.59
2022-12-18T02:07:46.364Z,100411.16
2022-12-18T02:10:21.181Z,100403.31
2022-12-18T02:12:55.141Z,100405.56
2022-12-18T02:15:33.299Z,100410.78
2022-12-18T02:18:09.496Z,100415.69
2022-12-18T02:20:43.100Z,100414.88
2022-12-18T02:23:25.226Z,100424.19
2022-12-18T02:26:08.871Z,100423.47
2022-12-18T02:28:42.295Z,100433.34
2022-12-18T02:31:13.895Z,100430.72
2022-12-18T02:33:44.133Z,100426.09
2022-12-18T02:36:14.418Z,100429.63
2022-12-18T02:38:44.642Z,100420.97
2022-12-18T02:41:15.261Z,100408.94
2022-12-18T02:43:48.029Z,100410.78
2022-12-18T02:46:32.108Z,100405.94
2022-12-18T02:49:07.747Z,100414.41
2022-12-18T02:51:45.950Z,100417.13
2022-12-18T02:54:23.712Z,100417.59
2022-12-18T02:56:56.710Z,100414.50
2022-12-18T02:59:31.689Z,100403.41
2022-12-18T03:02:04.802Z,100424.09
2022-12-18T03:04:41.167Z,100416.38
2022-12-18T03:07:17.495Z,100424.38
2022-12-18T03:09:50.739Z,100429.88
2022-12-18T03:12:27.089Z,100425.19
2022-12-18T03:15:01.124Z,100419.94
2022-12-18T03:17:32.490Z,100432.06
2022-12-18T03:20:04.788Z,100427.97
2022-12-18T03:22:35.386Z,100433.53
2022-12-18T03:25:08.258Z,100433.53
2022-12-18T03:27:41.143Z,100433.22
2022-12-18T03:30:13.232Z,100426.50
2022-12-18T03:32:46.636Z,100431.63
2022-12-18T03:35:18.588Z,100430.59
2022-12-18T03:37:46.699Z,100435.81
2022-12-18T03:40:14.815Z,100439.38
2022-12-18T03:42:51.699Z,100444.28
2022-12-18T03:45:24.753Z,100453.38
2022-12-18T03:48:01.852Z,100459.25
2022-12-18T03:50:39.357Z,100456.06
2022-12-18T03:53:15.845Z,100472.09
2022-12-18T03:55:45.644Z,100465.78
2022-12-18T03:58:18.343Z,100452.63
2022-12-18T04:00:47.899Z,100471.47
2022-12-18T04:03:16.832Z,100476.03
2022-12-18T04:05:46.147Z,100478.25
2022-12-18T04:08:14.545Z,100475.09
2022-12-18T04:10:42.548Z,100461.66
2022-12-18T04:13:11.687Z,100479.56
2022-12-18T04:15:41.561Z,100485.63
2022-12-18T04:18:09.880Z,100483.47
2022-12-18T04:20:37.788Z,100479.56
2022-12-18T04:23:05.670Z,100464.22
2022-12-18T04:25:33.570Z,100489.00
2022-12-18T04:28:01.428Z,100484.47
2022-12-18T04:30:29.399Z,100500.13
2022-12-18T04:32:58.698Z,100492.16
2022-12-18T04:35:26.687Z,100483.25
2022-12-18T04:37:54.581Z,100499.75
2022-12-18T04:40:22.543Z,100475.41
2022-12-18T04:42:50.506Z,100497.25
2022-12-18T04:45:18.502Z,100495.09
2022-12-18T04:47:46.440Z,100496.50
2022-12-18T04:50:15.715Z,100494.50
2022-12-18T04:52:43.643Z,100503.34
2022-12-18T04:55:11.581Z,100499.00
2022-12-18T04:57:39.784Z,100511.72
2022-12-18T05:00:09.269Z,100515.38
2022-12-18T05:02:37.230Z,100523.78
2022-12-18T05:05:05.743Z,100533.09
2022-12-18T05:07:35.091Z,100536.50
2022-12-18T05:10:02.953Z,100538.84
2022-12-18T05:12:30.823Z,100540.59
2022-12-18T05:14:58.742Z,100542.72
2022-12-18T05:17:26.700Z,100550.66
2022-12-18T05:19:54.637Z,100555.63
2022-12-18T05:22:22.718Z,100563.19
2022-12-18T05:24:52.014Z,100556.13
2022-12-18T05:27:21.628Z,100560.53
2022-12-18T05:29:49.558Z,100574.09
2022-12-18T05:32:17.436Z,100576.72
2022-12-18T05:34:45.312Z,100586.22
2022-12-18T05:37:13.202Z,100595.09
2022-12-18T05:39:41.171Z,100591.09
2022-12-18T05:42:10.946Z,100591.88
2022-12-18T05:44:38.909Z,100596.59
2022-12-18T05:47:06.912Z,100600.16
2022-12-18T05:49:34.941Z,100607.91
2022-12-18T05:52:02.900Z,100611.34
2022-12-18T05:54:30.839Z,100611.25
2022-12-18T05:56:59.170Z,100600.50
2022-12-18T05:59:28.800Z,100610.91
2022-12-18T06:01:56.873Z,100617.72
2022-12-18T06:04:24.922Z,100616.13
2022-12-18T06:06:52.820Z,100622.22
2022-12-18T06:09:20.882Z,100624.91
2022-12-18T06:11:48.868Z,100619.72
2022-12-18T06:14:18.316Z,100617.47
2022-12-18T06:16:47.576Z,100626.84
2022-12-18T06:19:18.368Z,100618.03
2022-12-18T06:21:46.296Z,100635.63
2022-12-18T06:24:14.242Z,100638.94
2022-12-18T06:26:42.358Z,100647.47
2022-12-18T06:29:10.444Z,100652.31
2022-12-18T06:31:38.549Z,100651.69
2022-12-18T06:34:07.926Z,100652.81
2022-12-18T06:36:35.814Z,100659.56
2022-12-18T06:39:04.061Z,100670.50
2022-12-18T06:41:32.082Z,100673.66
2022-12-18T06:44:00.287Z,100678.97
2022-12-18T06:46:28.454Z,100680.44
2022-12-18T06:48:56.435Z,100681.88
2022-12-18T06:51:27.851Z,100687.72
2022-12-18T06:53:55.820Z,100694.41
2022-12-18T06:56:23.900Z,100688.78
2022-12-18T06:58:51.952Z,100700.22
2022-12-18T07:01:20.158Z,100703.34
2022-12-18T07:03:48.248Z,100706.66
2022-12-18T07:06:17.865Z,100704.63
2022-12-18T07:08:47.664Z,100705.03
2022-12-18T07:11:16.495Z,100706.38
2022-12-18T07:13:44.647Z,100713.88
2022-12-18T07:16:20.851Z,100717.34
2022-12-18T07:18:52.271Z,100718.50
2022-12-18T07:21:21.718Z,100723.38
2022-12-18T07:23:51.402Z,100706.78
2022-12-18T07:26:20.799Z,100725.22
2022-12-18T07:28:49.248Z,100726.78
2022-12-18T07:31:19.478Z,100731.81
2022-12-18T07:33:48.660Z,100731.81
2022-12-18T07:36:16.957Z,100732.56
2022-12-18T07:38:45.303Z,100727.66
2022-12-18T07:41:15.628Z,100732.97
2022-12-18T07:43:44.638Z,100740.41
2022-12-18T07:46:14.715Z,100735.00
2022-12-18T07:48:43.664Z,100735.03
2022-12-18T07:51:13.521Z,100741.56
2022-12-18T07:53:42.732Z,100750.00
2022-12-18T07:56:29.611Z,100750.38
2022-12-18T07:59:00.657Z,100752.94
2022-12-18T08:01:29.127Z,100764.94
2022-12-18T08:03:57.926Z,100766.06
2022-12-18T08:06:25.900Z,100764.13
2022-12-18T08:08:55.006Z,100770.94
2022-12-18T08:11:23.794Z,100767.94
2022-12-18T08:13:51.671Z,100775.41
2022-12-18T08:16:21.944Z,100786.00
2022-12-18T08:18:50.527Z,100785.81
2022-12-18T08:21:22.182Z,100791.19
2022-12-18T08:23:51.656Z,100791.78
2022-12-18T08:26:20.993Z,100793.56
2022-12-18T08:28:49.469Z,100789.75
2022-12-18T08:31:18.497Z,100793.75
2022-12-18T08:33:51.373Z,100787.47
2022-12-18T08:36:19.528Z,100796.38
2022-12-18T08:38:47.654Z,100794.81
2022-12-18T08:41:16.854Z,100797.25
2022-12-18T08:44:02.265Z,100800.31
2022-12-18T08:46:36.041Z,100768.78
2022-12-18T08:49:06.239Z,100793.31
2022-12-18T08:51:34.470Z,100793.06
2022-12-18T08:54:03.145Z,100791.69
2022-12-18T08:56:33.063Z,100785.16
2022-12-18T08:59:01.076Z,100780.06
2022-12-18T09:01:29.514Z,100757.22
2022-12-18T09:03:57.563Z,100781.78
2022-12-18T09:06:27.591Z,100776.91
2022-12-18T09:08:55.580Z,100788.88
2022-12-18T09:11:25.636Z,100784.56
2022-12-18T09:13:54.778Z,100785.97
2022-12-18T09:16:27.354Z,100790.72
2022-12-18T09:19:01.307Z,100775.97
2022-12-18T09:21:34.348Z,100782.44
2022-12-18T09:24:08.011Z,100778.84
2022-12-18T09:26:37.821Z,100794.56
2022-12-18T09:29:08.113Z,100791.25
2022-12-18T09:31:36.952Z,100789.78
2022-12-18T09:34:04.876Z,100792.41
2022-12-18T09:36:34.218Z,100792.06
2022-12-18T09:39:07.580Z,100787.28
2022-12-18T09:41:43.607Z,100793.63
2022-12-18T09:44:36.839Z,100788.19
2022-12-18T09:47:13.624Z,100786.41
2022-12-18T09:49:45.168Z,100786.25
2022-12-18T09:52:21.705Z,100787.38
2022-12-18T09:54:55.819Z,100788.00
2022-12-18T09:57:26.649Z,100790.59
2022-12-18T09:59:58.746Z,100787.91
2022-12-18T10:02:28.692Z,100789.91
2022-12-18T10:05:12.685Z,100789.59
2022-12-18T10:08:01.238Z,100787.03
2022-12-18T10:10:37.938Z,100789.69
2022-12-18T10:13:17.734Z,100791.47
2022-12-18T10:16:02.733Z,100786.97
2022-12-18T10:18:48.908Z,100790.50
2022-12-18T10:21:23.799Z,100789.66
2022-12-18T10:24:05.062Z,100777.31
2022-12-18T10:26:34.938Z,100800.28
2022-12-18T10:29:05.808Z,100793.81
2022-12-18T10:31:34.107Z,100795.38
2022-12-18T10:34:02.291Z,100787.66
2022-12-18T10:36:30.837Z,100789.41
2022-12-18T10:39:17.512Z,100795.44
2022-12-18T10:41:45.812Z,100793.91
2022-12-18T10:44:19.400Z,100805.78
2022-12-18T10:46:49.223Z,100804.41
2022-12-18T10:49:24.623Z,100807.69
2022-12-18T10:51:53.939Z,100797.50
2022-12-18T10:54:25.201Z,100820.19
2022-12-18T10:56:53.161Z,100820.19
2022-12-18T10:59:21.179Z,100801.16
2022-12-18T11:01:51.984Z,100824.13
2022-12-18T11:04:23.172Z,100828.78
2022-12-18T11:07:00.650Z,100829.41
2022-12-18T11:09:32.811Z,100831.31
2022-12-18T11:12:02.570Z,100829.63
2022-12-18T11:14:34.731Z,100828.47
2022-12-18T11:17:24.981Z,100829.97
2022-12-18T11:19:55.617Z,100828.03
2022-12-18T11:22:27.534Z,100840.50
2022-12-18T11:27:51.616Z,100846.00
2022-12-18T11:30:25.291Z,100844.84
2022-12-18T11:32:58.180Z,100854.25
2022-12-18T11:35:37.046Z,100852.69
2022-12-18T11:38:12.923Z,100855.72
2022-12-18T11:40:46.772Z,100810.78
2022-12-18T11:43:19.094Z,100861.47
2022-12-18T11:45:54.616Z,100866.09
2022-12-18T11:48:27.616Z,100870.34
2022-12-18T11:50:57.610Z,100871.50
2022-12-18T11:53:27.256Z,100819.19
2022-12-18T11:56:29.437Z,100865.91
2022-12-18T11:59:10.900Z,100861.47
2022-12-18T12:01:51.022Z,100861.47
2022-12-18T12:04:43.316Z,100864.84
2022-12-18T12:07:24.839Z,100864.69
2022-12-18T12:10:02.847Z,100866.75
2022-12-18T12:12:49.242Z,100861.25
2022-12-18T12:15:29.723Z,100860.56
2022-12-18T12:18:08.215Z,100860.91
2022-12-18T12:20:49.871Z,100855.94
2022-12-18T12:23:28.780Z,100849.72
2022-12-18T12:26:03.587Z,100851.22
2022-12-18T12:28:51.210Z,100854.34
2022-12-18T12:31:30.628Z,100861.97
2022-12-18T12:34:07.226Z,100864.22
2022-12-18T12:36:47.837Z,100871.88
2022-12-18T12:39:20.206Z,100876.09
2022-12-18T12:42:06.865Z,100884.31
2022-12-18T12:44:42.764Z,100879.91
2022-12-18T12:47:18.541Z,100874.72
2022-12-18T12:49:48.734Z,100856.69
2022-12-18T12:52:29.809Z,100892.72
2022-12-18T12:55:00.248Z,100900.78
2022-12-18T12:57:35.855Z,100904.94
2022-12-18T13:00:11.378Z,100905.63
2022-12-18T13:02:46.583Z,100909.84
2022-12-18T13:05:24.148Z,100918.13
2022-12-18T13:07:58.518Z,100918.34
2022-12-18T13:10:33.810Z,100917.69
2022-12-18T13:13:03.551Z,100926.06
2022-12-18T13:15:46.215Z,100920.91
2022-12-18T13:18:18.910Z,100933.72
2022-12-18T13:20:55.390Z,100931.25
2022-12-18T13:23:35.202Z,100933.78
2022-12-18T13:26:32.253Z,100935.47
2022-12-18T13:29:02.843Z,100920.75
2022-12-18T13:32:10.385Z,100937.69
2022-12-18T13:34:39.745Z,100935.94
2022-12-18T13:37:42.851Z,100936.53
2022-12-18T13:40:58.821Z,100943.38
2022-12-18T13:43:31.895Z,100940.22
2022-12-18T13:46:22.354Z,100943.91
2022-12-18T13:48:54.766Z,100945.25
2022-12-18T13:51:25.238Z,100952.41
2022-12-18T13:53:56.311Z,100952.69
2022-12-18T13:56:27.189Z,100958.53
2022-12-18T13:59:14.034Z,100962.06
2022-12-18T14:01:47.430Z,100970.38
2022-12-18T14:04:23.107Z,100976.09
2022-12-18T14:06:55.725Z,100983.31
2022-12-18T14:09:28.114Z,100987.59
2022-12-18T14:12:19.420Z,100963.06
2022-12-18T14:14:49.921Z,100992.06
2022-12-18T14:17:21.480Z,100990.69
2022-12-18T14:19:52.584Z,101011.31
2022-12-18T14:22:28.616Z,101010.03
2022-12-18T14:25:16.156Z,101005.72
2022-12-18T14:27:45.540Z,101002.19
2022-12-18T14:30:28.012Z,101015.53
2022-12-18T14:33:03.639Z,101014.63
2022-12-18T14:35:31.938Z,100988.06
2022-12-18T14:38:20.006Z,101025.66
2022-12-18T14:40:48.216Z,101027.31
2022-12-18T14:43:16.131Z,101025.06
2022-12-18T14:45:47.082Z,101026.50
2022-12-18T14:48:23.513Z,101025.22
2022-12-18T14:51:00.799Z,101026.75
2022-12-18T14:53:39.214Z,101028.28
2022-12-18T14:56:17.665Z,101030.69
2022-12-18T14:58:50.998Z,101023.06
2022-12-18T15:01:28.844Z,101037.50
2022-12-18T15:03:58.910Z,101035.34
2022-12-18T15:06:33.308Z,101039.72
2022-12-18T15:09:06.364Z,101031.97
2022-12-18T15:11:47.838Z,101053.59
2022-12-18T15:14:36.924Z,101060.50
2022-12-18T15:17:09.056Z,101057.88
2022-12-18T15:19:40.795Z,101065.34
2022-12-18T15:22:25.139Z,101066.63
2022-12-18T15:24:55.528Z,101054.38
2022-12-18T15:27:26.386Z,101073.44
2022-12-18T15:30:23.602Z,101065.34
2022-12-18T15:32:52.248Z,101077.72
2022-12-18T15:35:23.009Z,101083.09
2022-12-18T15:37:52.011Z,101069.56
2022-12-18T15:40:23.437Z,101096.91
2022-12-18T15:43:13.013Z,101102.94
2022-12-18T15:45:41.116Z,101119.22
2022-12-18T15:48:21.552Z,101110.31
2022-12-18T15:50:49.670Z,101110.63
2022-12-18T15:53:17.597Z,101119.63
2022-12-18T15:56:04.445Z,101137.25
2022-12-18T15:58:33.884Z,101147.03
2022-12-18T16:01:04.809Z,101133.94
2022-12-18T16:03:32.767Z,101142.28
2022-12-18T16:06:02.946Z,101146.38
2022-12-18T16:08:32.397Z,101148.69
2022-12-18T16:11:02.393Z,101151.81
2022-12-18T16:13:30.361Z,101148.47
2022-12-18T16:15:58.577Z,101154.50
2022-12-18T16:18:26.616Z,101134.50
2022-12-18T16:20:54.801Z,101156.72
2022-12-18T16:23:22.742Z,101168.28
2022-12-18T16:25:50.652Z,101168.56
2022-12-18T16:28:19.933Z,101174.19
2022-12-18T16:30:47.884Z,101165.19
2022-12-18T16:33:16.377Z,101169.28
2022-12-18T16:35:44.270Z,101172.31
2022-12-18T16:38:12.211Z,101175.56
2022-12-18T16:41:00.249Z,101178.72
2022-12-18T16:43:29.501Z,101181.81
2022-12-18T16:45:59.585Z,101182.03
2022-12-18T16:48:27.522Z,101192.44
2022-12-18T16:51:02.899Z,101192.66
2022-12-18T16:53:31.254Z,101175.03
2022-12-18T16:56:00.355Z,101178.66
2022-12-18T16:58:29.593Z,101198.50
2022-12-18T17:00:57.506Z,101197.91
2022-12-18T17:03:25.433Z,101198.38
2022-12-18T17:05:53.508Z,101212.72
2022-12-18T17:08:21.521Z,101216.63
2022-12-18T17:10:49.560Z,101230.69
2022-12-18T17:13:20.268Z,101225.84
2022-12-18T17:15:53.904Z,101231.47
2022-12-18T17:18:22.626Z,101228.22
2022-12-18T17:20:50.630Z,101228.91
2022-12-18T17:23:18.617Z,101228.84
2022-12-18T17:25:46.523Z,101234.75
2022-12-18T17:28:17.014Z,101232.75
2022-12-18T17:30:44.869Z,101230.72
2022-12-18T17:33:14.163Z,101233.53
2022-12-18T17:35:43.060Z,101225.66
2022-12-18T17:38:11.164Z,101235.22
2022-12-18T17:40:45.940Z,101235.34
2022-12-18T17:43:14.330Z,101247.66
2022-12-18T17:45:42.594Z,101245.81
2022-12-18T17:48:11.089Z,101230.63
2022-12-18T17:50:40.870Z,101249.03
2022-12-18T17:53:08.760Z,101259.53
2022-12-18T17:55:36.669Z,101263.56
2022-12-18T17:58:04.913Z,101269.91
2022-12-18T18:00:33.016Z,101275.75
2022-12-18T18:03:01.069Z,101280.50
2022-12-18T18:05:29.133Z,101288.97
2022-12-18T18:07:58.960Z,101299.38
2022-12-18T18:10:26.830Z,101305.44
2022-12-18T18:13:12.342Z,101317.00
2022-12-18T18:15:41.023Z,101316.88
2022-12-18T18:18:08.932Z,101325.81
2022-12-18T18:20:41.029Z,101336.84
2022-12-18T18:23:10.397Z,101330.63
2022-12-18T18:25:38.474Z,101336.78
2022-12-18T18:28:06.593Z,101344.78
2022-12-18T18:30:34.659Z,101337.78
2022-12-18T18:33:04.638Z,101333.38
2022-12-18T18:38:24.766Z,101352.81
2022-12-18T18:40:59.402Z,101353.38
2022-12-18T18:43:27.314Z,101361.75
2022-12-18T18:45:57.087Z,101368.06
2022-12-18T18:48:25.024Z,101376.16
2022-12-18T18:50:58.474Z,101376.34
2022-12-18T18:53:28.454Z,101377.25
2022-12-18T18:56:34.782Z,101383.22
2022-12-18T18:58:47.455Z,101383.44
2022-12-18T19:01:17.845Z,101401.03
2022-12-18T19:03:47.151Z,101382.34
2022-12-18T19:06:17.338Z,101381.00
2022-12-18T19:08:47.808Z,101416.41
2022-12-18T19:11:36.525Z,101431.81
2022-12-18T19:14:06.222Z,101413.00
2022-12-18T19:16:35.260Z,101421.25
2022-12-18T19:19:05.647Z,101441.75
2022-12-18T19:21:34.856Z,101447.47
2022-12-18T19:24:04.195Z,101452.38
2022-12-18T19:26:32.046Z,101459.50
2022-12-18T19:29:03.325Z,101460.06
2022-12-18T19:31:35.618Z,101464.38
2022-12-18T19:34:05.067Z,101468.88
2022-12-18T19:36:34.191Z,101451.94
2022-12-18T19:39:08.521Z,101480.09
2022-12-18T19:41:36.493Z,101473.06
2022-12-18T19:44:08.238Z,101470.34
2022-12-18T19:46:40.682Z,101454.47
2022-12-18T19:49:16.269Z,101466.47
2022-12-18T19:51:46.520Z,101472.94
2022-12-18T19:54:17.532Z,101470.56
2022-12-18T19:56:46.512Z,101466.66
2022-12-18T19:59:15.341Z,101463.78
2022-12-18T20:01:43.542Z,101456.00
2022-12-18T20:04:11.634Z,101473.38
2022-12-18T20:06:48.723Z,101472.69
2022-12-18T20:09:19.416Z,101467.66
2022-12-18T20:11:48.888Z,101469.53
2022-12-18T20:14:22.993Z,101465.78
2022-12-18T20:16:53.484Z,101473.66
2022-12-18T20:19:22.448Z,101479.75
2022-12-18T20:21:50.871Z,101476.25
2022-12-18T20:24:20.161Z,101489.81
2022-12-18T20:26:48.103Z,101485.72
2022-12-18T20:29:16.066Z,101489.53
2022-12-18T20:31:44.024Z,101496.91
2022-12-18T20:34:12.092Z,101499.63
2022-12-18T20:36:41.160Z,101486.94
2022-12-18T20:39:11.023Z,101513.66
2022-12-18T20:41:42.603Z,101511.78
2022-12-18T20:44:23.710Z,101517.97
2022-12-18T20:46:53.674Z,101522.25
2022-12-18T20:49:21.971Z,101518.59
2022-12-18T20:51:52.589Z,101512.13
2022-12-18T20:54:21.111Z,101527.78
2022-12-18T20:56:52.866Z,101542.38
2022-12-18T20:59:21.211Z,101533.03
2022-12-18T21:01:49.738Z,101529.38
2022-12-18T21:04:19.264Z,101532.97
2022-12-18T21:06:52.340Z,101535.50
2022-12-18T21:09:22.302Z,101537.28
2022-12-18T21:12:09.041Z,101532.19
2022-12-18T21:14:40.241Z,101531.78
2022-12-18T21:17:08.374Z,101532.50
2022-12-18T21:19:36.370Z,101537.53
2022-12-18T21:22:05.154Z,101526.50
2022-12-18T21:24:33.307Z,101538.06
2022-12-18T21:27:02.795Z,101539.56
2022-12-18T21:29:30.991Z,101516.00
2022-12-18T21:31:59.353Z,101531.53
2022-12-18T21:34:29.373Z,101533.78
2022-12-18T21:36:59.054Z,101516.50
2022-12-18T21:39:28.556Z,101532.09
2022-12-18T21:42:14.805Z,101522.41
2022-12-18T21:44:44.474Z,101515.72
2022-12-18T21:47:22.070Z,101513.22
2022-12-18T21:49:51.691Z,101507.09
2022-12-18T21:52:19.686Z,101510.34
2022-12-18T21:54:49.464Z,101504.44
2022-12-18T21:57:18.729Z,101510.50
2022-12-18T21:59:48.851Z,101503.38
2022-12-18T22:02:18.299Z,101513.66
2022-12-18T22:04:47.034Z,101517.13
2022-12-18T22:07:16.939Z,101499.44
2022-12-18T22:09:45.122Z,101497.00
2022-12-18T22:12:34.688Z,101519.53
2022-12-18T22:15:05.462Z,101522.84
2022-12-18T22:17:33.367Z,101519.84
2022-12-18T22:20:01.362Z,101511.31
2022-12-18T22:22:29.401Z,101509.56
2022-12-18T22:24:57.332Z,101514.00
2022-12-18T22:27:25.266Z,101501.75
2022-12-18T22:30:04.365Z,101527.72
2022-12-18T22:32:35.138Z,101524.22
2022-12-18T22:35:08.271Z,101523.50
2022-12-18T22:37:40.739Z,101531.25
2022-12-18T22:40:12.964Z,101517.94
2022-12-18T22:42:41.667Z,101509.63
2022-12-18T22:45:10.540Z,101508.13
2022-12-18T22:47:40.349Z,101515.09
2022-12-18T22:50:09.158Z,101514.75
2022-12-18T22:52:37.015Z,101520.97
2022-12-18T22:55:05.611Z,101525.03
2022-12-18T22:57:34.969Z,101523.66
2022-12-18T23:00:05.307Z,101525.03
2022-12-18T23:02:33.312Z,101531.38
2022-12-18T23:05:02.720Z,101526.53
2022-12-18T23:07:30.589Z,101534.44
2022-12-18T23:10:01.214Z,101530.88
2022-12-18T23:12:29.387Z,101517.09
2022-12-18T23:14:57.573Z,101526.38
2022-12-18T23:17:25.432Z,101528.69
2022-12-18T23:19:53.274Z,101531.53
2022-12-18T23:22:22.548Z,101526.38
2022-12-18T23:24:50.424Z,101522.94
2022-12-18T23:27:18.333Z,101532.41
2022-12-18T23:29:46.208Z,101532.84
2022-12-18T23:32:15.764Z,101534.22
2022-12-18T23:34:43.751Z,101537.97
2022-12-18T23:37:11.649Z,101541.25
2022-12-18T23:39:40.910Z,101536.97
2022-12-18T23:42:08.785Z,101544.88
2022-12-18T23:44:37.628Z,101551.88
2022-12-18T23:47:07.050Z,101547.41
2022-12-18T23:49:34.991Z,101551.72
2022-12-18T23:52:03.103Z,101561.91
2022-12-18T23:54:33.539Z,101563.00
2022-12-18T23:57:03.220Z,101558.44
2022-12-18T23:59:31.124Z,101555.28
